Time;durP1;ratioP1;P1;durP2;ratioP2;P2;SDS_P1;SDS_P2;PMS_P1;PMS_P2;Temp;Humidity;BMP_temperature;BMP_pressure;BME280_temperature;BME280_humidity;BME280_pressure;Samples;Min_cycle;Max_cycle;Signal;HPM_P1;HPM_P2
2023/06/17 00:00:57;;;;;;;48.72;37.67;;;15.70;99.90;;;;;;5090311;28;20554;-79
2023/06/17 00:03:25;;;;;;;55.08;40.30;;;15.70;99.90;;;;;;5089257;28;20488;-79
2023/06/17 00:05:52;;;;;;;50.03;37.47;;;15.70;99.90;;;;;;5089486;28;20072;-78
2023/06/17 00:08:20;;;;;;;48.90;36.92;;;15.70;99.90;;;;;;5090066;28;20044;-78
2023/06/17 00:10:47;;;;;;;54.55;38.97;;;15.70;99.90;;;;;;5071055;28;20494;-78
2023/06/17 00:13:19;;;;;;;51.40;38.35;;;15.70;99.90;;;;;;5090270;28;20044;-80
2023/06/17 00:15:47;;;;;;;54.65;39.72;;;15.70;99.90;;;;;;5088120;28;20036;-78
2023/06/17 00:18:19;;;;;;;61.63;41.88;;;15.70;99.90;;;;;;5090210;28;20093;-77
2023/06/17 00:20:47;;;;;;;49.50;38.47;;;15.80;99.90;;;;;;5093098;28;20127;-80
2023/06/17 00:23:14;;;;;;;52.97;38.22;;;15.80;99.90;;;;;;5069387;28;20044;-80
2023/06/17 00:25:42;;;;;;;46.63;35.03;;;15.80;99.90;;;;;;5089989;28;20052;-78
2023/06/17 00:28:09;;;;;;;49.20;34.70;;;15.80;99.90;;;;;;5089202;28;20036;-79
2023/06/17 00:30:38;;;;;;;40.72;32.15;;;15.80;99.90;;;;;;5089322;28;20140;-78
2023/06/17 00:33:06;;;;;;;39.92;31.25;;;15.80;99.90;;;;;;5068898;28;20063;-77
2023/06/17 00:35:34;;;;;;;40.88;31.45;;;15.80;99.90;;;;;;5067738;28;20423;-78
2023/06/17 00:38:02;;;;;;;36.40;31.35;;;15.80;99.90;;;;;;5070494;28;20044;-79
2023/06/17 00:40:29;;;;;;;39.92;31.33;;;15.80;99.90;;;;;;5086919;28;20052;-77
2023/06/17 00:42:57;;;;;;;42.13;32.53;;;15.80;99.90;;;;;;5069248;28;20094;-76
2023/06/17 00:45:25;;;;;;;45.50;34.17;;;15.70;99.90;;;;;;5061052;28;20693;-77
2023/06/17 00:47:54;;;;;;;44.38;32.40;;;15.70;99.90;;;;;;5070183;28;20040;-77
2023/06/17 00:50:21;;;;;;;39.50;30.95;;;15.70;99.90;;;;;;5077242;28;20070;-76
2023/06/17 00:52:53;;;;;;;44.75;32.97;;;15.70;99.90;;;;;;5087636;28;20047;-77
2023/06/17 00:55:22;;;;;;;46.55;32.75;;;15.70;99.90;;;;;;5070070;28;20052;-76
2023/06/17 00:57:53;;;;;;;43.65;33.53;;;15.70;99.90;;;;;;5087020;28;20075;-77
2023/06/17 01:00:21;;;;;;;43.90;32.72;;;15.70;99.90;;;;;;5069470;28;20047;-78
2023/06/17 01:02:48;;;;;;;43.20;33.03;;;15.70;99.90;;;;;;5070109;28;20384;-76
2023/06/17 01:05:18;;;;;;;44.75;33.28;;;15.70;99.90;;;;;;5088332;28;20036;-78
2023/06/17 01:08:19;;;;;;;37.60;30.05;;;15.70;99.90;;;;;;5083476;28;20066;-77
2023/06/17 01:10:54;;;;;;;35.78;29.02;;;15.80;99.90;;;;;;5064480;28;20040;-76
2023/06/17 01:13:23;;;;;;;39.40;30.15;;;15.80;99.90;;;;;;5088006;28;20048;-78
2023/06/17 01:15:52;;;;;;;38.70;28.45;;;15.70;99.90;;;;;;5065820;28;20548;-78
2023/06/17 01:18:20;;;;;;;37.97;29.17;;;15.70;99.90;;;;;;5087510;28;20062;-78
2023/06/17 01:20:53;;;;;;;37.00;29.38;;;15.70;99.90;;;;;;5082882;28;20042;-76
2023/06/17 01:23:34;;;;;;;38.67;31.58;;;15.80;99.90;;;;;;5087352;28;20040;-80
2023/06/17 01:26:03;;;;;;;40.17;31.08;;;15.80;99.90;;;;;;5083889;28;20477;-79
2023/06/17 01:28:33;;;;;;;46.92;34.20;;;15.70;99.90;;;;;;5066369;28;20067;-78
2023/06/17 01:31:02;;;;;;;51.28;34.33;;;15.80;99.90;;;;;;5067179;28;20041;-78
2023/06/17 01:33:29;;;;;;;51.90;34.90;;;15.80;99.90;;;;;;5083394;28;20507;-79
2023/06/17 01:36:03;;;;;;;51.85;36.03;;;15.80;99.90;;;;;;5066052;28;20411;-80
2023/06/17 01:38:38;;;;;;;65.45;43.90;;;15.70;99.90;;;;;;5079885;28;20036;-80
2023/06/17 01:41:12;;;;;;;45.45;35.42;;;15.70;99.90;;;;;;5088095;28;20051;-78
2023/06/17 01:43:42;;;;;;;49.75;35.45;;;15.80;99.90;;;;;;5066669;28;20050;-78
2023/06/17 01:46:11;;;;;;;53.75;34.47;;;15.80;99.90;;;;;;5084898;28;20098;-78
2023/06/17 01:48:39;;;;;;;49.40;35.00;;;15.80;99.90;;;;;;5070201;28;20040;-78
2023/06/17 01:51:06;;;;;;;51.97;36.67;;;15.80;99.90;;;;;;5087579;28;20082;-78
2023/06/17 01:53:35;;;;;;;45.60;34.72;;;15.80;99.90;;;;;;5097072;28;20040;-79
2023/06/17 01:56:02;;;;;;;41.72;31.17;;;15.80;99.90;;;;;;5110703;28;20209;-79
2023/06/17 01:58:31;;;;;;;42.00;31.67;;;15.80;99.90;;;;;;5090469;28;20052;-78
2023/06/17 02:00:59;;;;;;;42.17;31.13;;;15.80;99.90;;;;;;5087208;28;20055;-78
2023/06/17 02:03:27;;;;;;;43.47;31.83;;;15.90;99.90;;;;;;5072067;28;20078;-79
2023/06/17 02:06:13;;;;;;;51.75;33.55;;;15.90;99.90;;;;;;5071852;28;20131;-78
2023/06/17 02:08:42;;;;;;;49.17;33.42;;;15.80;99.90;;;;;;5073226;28;20040;-77
2023/06/17 02:11:09;;;;;;;56.83;33.83;;;15.80;99.90;;;;;;5072791;28;20070;-78
2023/06/17 02:13:39;;;;;;;48.17;32.35;;;15.80;99.90;;;;;;5069387;28;20044;-78
2023/06/17 02:16:07;;;;;;;42.35;30.33;;;15.90;99.90;;;;;;5069389;28;20048;-78
2023/06/17 02:18:34;;;;;;;42.78;31.10;;;15.80;99.90;;;;;;5085562;28;20136;-78
2023/06/17 02:21:02;;;;;;;40.20;29.10;;;15.80;99.90;;;;;;5087663;28;20037;-77
2023/06/17 02:23:30;;;;;;;41.47;27.60;;;15.80;99.90;;;;;;5070587;28;20049;-77
2023/06/17 02:25:57;;;;;;;37.10;26.63;;;15.80;99.90;;;;;;5070252;28;20040;-79
2023/06/17 02:28:26;;;;;;;33.13;24.25;;;15.80;99.90;;;;;;5075626;28;20131;-78
2023/06/17 02:30:55;;;;;;;34.75;24.77;;;15.80;99.90;;;;;;5076642;28;20037;-80
2023/06/17 02:33:23;;;;;;;38.72;26.40;;;15.80;99.90;;;;;;5072080;28;20041;-78
2023/06/17 02:35:51;;;;;;;38.70;25.50;;;15.80;99.90;;;;;;5069825;28;20044;-77
2023/06/17 02:38:18;;;;;;;40.33;25.92;;;15.80;99.90;;;;;;5072159;28;20044;-80
2023/06/17 02:40:46;;;;;;;45.10;28.75;;;15.80;99.90;;;;;;5069253;28;20051;-78
2023/06/17 02:43:13;;;;;;;48.55;30.85;;;15.80;99.90;;;;;;5072988;28;20068;-78
2023/06/17 02:45:41;;;;;;;38.90;29.52;;;15.70;99.90;;;;;;5070044;28;20048;-79
2023/06/17 02:48:10;;;;;;;43.22;29.60;;;15.70;99.90;;;;;;5089478;28;20036;-81
2023/06/17 02:50:37;;;;;;;42.55;28.52;;;15.80;99.90;;;;;;5085871;28;20043;-80
2023/06/17 02:53:07;;;;;;;41.05;29.85;;;15.80;99.90;;;;;;5089644;28;20036;-79
2023/06/17 02:55:35;;;;;;;42.10;29.70;;;15.80;99.90;;;;;;5070417;28;20060;-78
2023/06/17 02:58:15;;;;;;;;;;;15.80;99.90;;;;;;5071985;28;20091;-78
2023/06/17 03:00:45;;;;;;;44.30;30.42;;;15.80;99.90;;;;;;5068983;28;19927;-78
2023/06/17 03:03:14;;;;;;;49.58;31.55;;;15.80;99.90;;;;;;5089244;28;20484;-80
2023/06/17 03:05:43;;;;;;;52.50;33.05;;;15.90;99.90;;;;;;5069310;28;20040;-78
2023/06/17 03:08:11;;;;;;;61.03;34.13;;;15.90;99.90;;;;;;5069721;28;20048;-78
2023/06/17 03:10:38;;;;;;;75.10;38.63;;;15.90;99.90;;;;;;5073707;28;20123;-78
2023/06/17 03:13:12;;;;;;;111.90;49.97;;;15.90;99.90;;;;;;5072482;28;20494;-79
2023/06/17 03:15:45;;;;;;;128.82;57.50;;;15.90;99.90;;;;;;5072038;28;20048;-80
2023/06/17 03:18:15;;;;;;;129.70;57.70;;;16.00;99.90;;;;;;5072499;28;20090;-78
2023/06/17 03:20:42;;;;;;;141.77;61.90;;;15.90;99.90;;;;;;5069290;28;20043;-79
2023/06/17 03:23:11;;;;;;;163.82;62.90;;;16.00;99.90;;;;;;5056090;28;20067;-78
2023/06/17 03:25:38;;;;;;;164.10;67.65;;;15.90;99.90;;;;;;5069342;28;20049;-78
2023/06/17 03:28:06;;;;;;;159.35;65.00;;;15.90;99.90;;;;;;5068762;28;20536;-79
2023/06/17 03:30:33;;;;;;;155.15;63.10;;;15.90;99.90;;;;;;5067849;28;20040;-80
2023/06/17 03:33:03;;;;;;;127.82;57.60;;;15.90;99.90;;;;;;5068929;28;20050;-80
2023/06/17 03:35:33;;;;;;;131.10;55.70;;;15.80;99.90;;;;;;5068933;28;20423;-78
2023/06/17 03:38:02;;;;;;;115.68;52.88;;;15.80;99.90;;;;;;5073516;28;20485;-77
2023/06/17 03:40:29;;;;;;;108.45;49.35;;;15.80;99.90;;;;;;5091499;28;20040;-79
2023/06/17 03:42:58;;;;;;;98.45;47.10;;;15.80;99.90;;;;;;5068517;28;20036;-80
2023/06/17 03:45:28;;;;;;;85.95;41.70;;;15.70;99.90;;;;;;5065729;28;20147;-78
2023/06/17 03:47:58;;;;;;;78.55;39.97;;;15.70;99.90;;;;;;5071268;28;20060;-78
2023/06/17 03:50:26;;;;;;;69.43;39.78;;;15.80;99.90;;;;;;5071975;28;20044;-79
2023/06/17 03:52:56;;;;;;;62.85;36.70;;;15.80;99.90;;;;;;5070824;28;20048;-78
2023/06/17 03:55:23;;;;;;;57.83;35.50;;;15.80;99.90;;;;;;5071494;28;20048;-79
2023/06/17 03:57:51;;;;;;;58.28;34.85;;;15.80;99.90;;;;;;5067505;28;20094;-78
2023/06/17 04:00:19;;;;;;;55.10;33.60;;;15.80;99.90;;;;;;5069667;28;20109;-78
2023/06/17 04:02:48;;;;;;;58.47;35.95;;;15.80;99.90;;;;;;5067115;28;20072;-78
2023/06/17 04:05:32;;;;;;;57.97;33.72;;;15.80;99.90;;;;;;5066462;28;20040;-77
2023/06/17 04:08:03;;;;;;;57.42;33.83;;;15.80;99.90;;;;;;5067531;28;20129;-77
2023/06/17 04:10:31;;;;;;;55.65;33.05;;;15.80;99.90;;;;;;5089280;28;20043;-78
2023/06/17 04:12:59;;;;;;;51.83;32.42;;;15.90;99.90;;;;;;5068100;28;20407;-77
2023/06/17 04:15:27;;;;;;;54.20;34.22;;;15.90;99.90;;;;;;5067197;28;20050;-77
2023/06/17 04:17:55;;;;;;;50.58;32.92;;;15.90;99.90;;;;;;5066541;28;20516;-77
2023/06/17 04:20:25;;;;;;;46.97;30.63;;;16.00;99.90;;;;;;5087704;28;20466;-78
2023/06/17 04:22:52;;;;;;;47.08;31.35;;;16.00;99.90;;;;;;5084316;28;20113;-78
2023/06/17 04:25:22;;;;;;;47.92;30.42;;;16.10;99.90;;;;;;5070567;28;20047;-78
2023/06/17 04:27:53;;;;;;;46.08;30.13;;;16.10;99.90;;;;;;5066265;28;20131;-78
2023/06/17 04:30:25;;;;;;;40.90;29.88;;;16.20;99.90;;;;;;5070418;28;20079;-79
2023/06/17 04:32:54;;;;;;;46.13;28.92;;;16.30;99.90;;;;;;5066716;28;20044;-76
2023/06/17 04:35:23;;;;;;;46.20;30.92;;;16.40;99.90;;;;;;5087459;28;20040;-77
2023/06/17 04:37:53;;;;;;;46.45;29.35;;;16.40;99.90;;;;;;5067067;28;20079;-79
2023/06/17 04:40:22;;;;;;;40.70;28.50;;;16.50;99.90;;;;;;5071476;28;20085;-76
2023/06/17 04:42:50;;;;;;;40.58;28.90;;;16.60;99.90;;;;;;5089877;28;20036;-78
2023/06/17 04:45:18;;;;;;;45.08;30.02;;;16.70;99.90;;;;;;5068850;28;20208;-76
2023/06/17 04:47:49;;;;;;;47.00;30.92;;;16.80;99.90;;;;;;5066723;28;20559;-77
2023/06/17 04:50:16;;;;;;;47.15;30.65;;;16.80;99.90;;;;;;5085214;28;20183;-77
2023/06/17 04:52:48;;;;;;;41.83;30.38;;;16.90;99.90;;;;;;5066420;28;20124;-77
2023/06/17 04:55:18;;;;;;;43.00;27.45;;;17.00;99.90;;;;;;5069863;28;20090;-77
2023/06/17 04:57:48;;;;;;;39.28;27.60;;;17.10;99.90;;;;;;5082095;28;20040;-77
2023/06/17 05:00:22;;;;;;;44.17;28.92;;;17.20;99.90;;;;;;5070188;28;20137;-76
2023/06/17 05:02:52;;;;;;;39.90;28.30;;;17.20;1.00;;;;;;5066068;28;20098;-77
2023/06/17 05:05:21;;;;;;;40.75;28.90;;;17.40;99.90;;;;;;5089586;28;20031;-80
2023/06/17 05:07:49;;;;;;;44.58;30.02;;;17.40;1.00;;;;;;5092112;28;20083;-76
2023/06/17 05:10:17;;;;;;;42.33;28.65;;;17.50;1.00;;;;;;5084750;28;20064;-77
2023/06/17 05:12:44;;;;;;;42.10;27.90;;;17.70;99.90;;;;;;5076975;28;20119;-76
2023/06/17 05:15:13;;;;;;;42.90;29.13;;;17.90;1.00;;;;;;5072372;28;20105;-75
2023/06/17 05:17:41;;;;;;;47.55;28.77;;;18.00;1.00;;;;;;5062576;28;20075;-76
2023/06/17 05:20:10;;;;;;;49.08;29.55;;;18.20;99.90;;;;;;5068359;28;20058;-75
2023/06/17 05:22:38;;;;;;;48.78;31.48;;;18.40;1.00;;;;;;5065430;28;20043;-78
2023/06/17 05:25:07;;;;;;;45.67;29.38;;;18.60;1.00;;;;;;5070028;28;20040;-75
2023/06/17 05:27:34;;;;;;;51.72;33.00;;;18.60;99.90;;;;;;5086111;28;20040;-76
2023/06/17 05:30:02;;;;;;;49.22;32.88;;;18.60;1.00;;;;;;5066451;28;20041;-77
2023/06/17 05:32:31;;;;;;;45.65;30.48;;;18.60;99.90;;;;;;5066247;28;20068;-76
2023/06/17 05:34:59;;;;;;;46.97;31.40;;;18.50;1.00;;;;;;5067217;28;20068;-76
2023/06/17 05:37:27;;;;;;;48.55;31.10;;;18.30;1.00;;;;;;5062341;28;20044;-76
2023/06/17 05:39:54;;;;;;;51.20;33.10;;;18.30;1.00;;;;;;5070647;28;20041;-76
2023/06/17 05:42:22;;;;;;;51.38;32.97;;;18.30;1.00;;;;;;5069283;28;20131;-77
2023/06/17 05:44:49;;;;;;;50.42;32.92;;;18.30;1.00;;;;;;5082261;28;20052;-77
2023/06/17 05:47:17;;;;;;;47.83;29.40;;;18.30;1.00;;;;;;5067262;28;20041;-77
2023/06/17 05:49:46;;;;;;;45.15;28.85;;;18.40;1.00;;;;;;5066092;28;21040;-77
2023/06/17 05:52:14;;;;;;;39.92;26.73;;;18.50;1.00;;;;;;5069221;28;20139;-78
2023/06/17 05:54:42;;;;;;;46.08;26.65;;;18.60;1.00;;;;;;5071600;28;20213;-78
2023/06/17 05:57:11;;;;;;;38.90;25.95;;;18.60;1.00;;;;;;5072916;28;20407;-76
2023/06/17 05:59:38;;;;;;;38.28;25.52;;;18.70;1.00;;;;;;5071148;28;20518;-78
2023/06/17 06:02:07;;;;;;;42.63;24.33;;;18.80;1.00;;;;;;5089606;28;20047;-76
2023/06/17 06:04:34;;;;;;;32.17;20.77;;;19.00;99.90;;;;;;5071088;28;20078;-79
2023/06/17 06:07:03;;;;;;;39.10;22.85;;;19.10;99.90;;;;;;5087563;28;20336;-76
2023/06/17 06:09:31;;;;;;;28.55;19.20;;;19.20;99.90;;;;;;5092657;28;20047;-77
2023/06/17 06:12:00;;;;;;;27.80;18.88;;;19.50;99.90;;;;;;5089924;28;20044;-77
2023/06/17 06:14:27;;;;;;;29.80;20.83;;;19.60;99.90;;;;;;5063781;28;20043;-79
2023/06/17 06:16:57;;;;;;;28.17;19.38;;;19.80;99.90;;;;;;5071274;28;20050;-80
2023/06/17 06:19:25;;;;;;;26.70;18.75;;;20.00;99.90;;;;;;5074255;28;20075;-77
2023/06/17 06:21:52;;;;;;;31.08;19.85;;;20.10;99.90;;;;;;5077906;28;20054;-77
2023/06/17 06:24:21;;;;;;;34.42;20.63;;;20.50;99.90;;;;;;5092275;28;20040;-79
2023/06/17 06:26:49;;;;;;;35.38;22.27;;;20.90;99.90;;;;;;5088156;28;20149;-80
2023/06/17 06:29:17;;;;;;;31.38;21.13;;;21.30;99.90;;;;;;5073138;28;20040;-79
2023/06/17 06:31:45;;;;;;;31.00;20.48;;;21.50;99.90;;;;;;5073092;28;20041;-79
2023/06/17 06:34:15;;;;;;;31.38;21.50;;;21.60;99.90;;;;;;5073025;28;20050;-78
2023/06/17 06:36:45;;;;;;;32.05;21.55;;;21.80;99.90;;;;;;5072811;28;20123;-78
2023/06/17 06:39:13;;;;;;;29.85;20.27;;;21.90;99.90;;;;;;5072071;28;20036;-77
2023/06/17 06:41:42;;;;;;;27.40;17.85;;;22.10;99.90;;;;;;5091299;28;20065;-76
2023/06/17 06:44:42;;;;;;;25.83;17.80;;;22.30;99.90;;;;;;5063325;28;20054;-79
2023/06/17 06:47:10;;;;;;;24.45;17.73;;;22.70;99.90;;;;;;5088288;28;20244;-77
2023/06/17 06:49:37;;;;;;;26.48;17.85;;;23.00;99.90;;;;;;5092736;28;20047;-77
2023/06/17 06:52:05;;;;;;;26.35;17.45;;;23.10;99.90;;;;;;5072005;28;20047;-78
2023/06/17 06:54:33;;;;;;;29.75;17.58;;;23.00;99.90;;;;;;5072126;28;20047;-78
2023/06/17 06:57:02;;;;;;;26.77;18.38;;;22.80;99.90;;;;;;5072528;28;20130;-77
2023/06/17 06:59:29;;;;;;;26.55;16.83;;;22.80;99.90;;;;;;5072302;28;20051;-77
2023/06/17 07:01:57;;;;;;;22.60;16.20;;;22.70;99.90;;;;;;5087359;28;20101;-77
2023/06/17 07:04:25;;;;;;;22.52;15.88;;;22.70;99.90;;;;;;5071378;28;20060;-78
2023/06/17 07:06:57;;;;;;;23.63;16.73;;;22.50;99.90;;;;;;5086349;28;20056;-76
2023/06/17 07:09:29;;;;;;;20.25;15.07;;;22.60;99.90;;;;;;5068040;28;20044;-76
2023/06/17 07:11:57;;;;;;;24.15;15.48;;;22.50;99.90;;;;;;5074289;28;20401;-77
2023/06/17 07:14:26;;;;;;;19.75;13.48;;;22.60;99.90;;;;;;5072088;28;20618;-79
2023/06/17 07:16:53;;;;;;;16.92;10.93;;;22.60;99.90;;;;;;5090280;28;20055;-76
2023/06/17 07:19:21;;;;;;;18.10;12.38;;;22.60;99.90;;;;;;5072275;28;20048;-74
2023/06/17 07:21:49;;;;;;;13.68;10.85;;;22.60;99.90;;;;;;5071375;28;20036;-74
2023/06/17 07:24:17;;;;;;;14.48;9.50;;;22.70;99.90;;;;;;5074346;28;20120;-74
2023/06/17 07:26:46;;;;;;;14.57;9.20;;;22.60;99.90;;;;;;5073837;28;20043;-74
2023/06/17 07:29:13;;;;;;;15.77;9.93;;;22.70;99.90;;;;;;5074311;28;20050;-74
2023/06/17 07:31:45;;;;;;;10.73;8.15;;;22.70;99.90;;;;;;5074460;28;20123;-78
2023/06/17 07:34:12;;;;;;;14.27;9.43;;;22.70;99.90;;;;;;5073786;28;20051;-74
2023/06/17 07:36:40;;;;;;;14.75;8.95;;;22.60;99.90;;;;;;5073071;28;20044;-77
2023/06/17 07:39:07;;;;;;;11.10;7.88;;;22.40;99.90;;;;;;5089183;28;20060;-77
2023/06/17 07:41:35;;;;;;;10.80;7.72;;;22.40;99.90;;;;;;5092325;28;20036;-76
2023/06/17 07:44:02;;;;;;;11.15;9.10;;;22.50;99.90;;;;;;5071853;28;20135;-79
2023/06/17 07:46:31;;;;;;;12.85;8.52;;;22.60;99.90;;;;;;5093618;28;20048;-76
2023/06/17 07:49:00;;;;;;;13.20;8.38;;;22.70;99.90;;;;;;5091850;28;20036;-75
2023/06/17 07:51:32;;;;;;;12.48;9.27;;;22.90;99.90;;;;;;5093606;28;20040;-75
2023/06/17 07:53:59;;;;;;;11.43;8.18;;;23.10;99.90;;;;;;5097414;28;20048;-82
2023/06/17 07:56:29;;;;;;;13.77;9.45;;;23.50;99.90;;;;;;5094098;28;20047;-78
2023/06/17 07:58:57;;;;;;;15.57;8.50;;;23.90;99.90;;;;;;5090740;28;20063;-78
2023/06/17 08:01:24;;;;;;;10.82;8.18;;;24.00;99.90;;;;;;5094142;28;20685;-78
2023/06/17 08:03:52;;;;;;;9.27;8.13;;;23.80;99.90;;;;;;5091559;28;20047;-78
2023/06/17 08:06:22;;;;;;;15.55;8.60;;;23.60;99.90;;;;;;5092071;28;20048;-78
2023/06/17 08:08:50;;;;;;;19.17;11.23;;;23.70;99.90;;;;;;5091621;28;20055;-81
2023/06/17 08:11:17;;;;;;;15.07;10.63;;;23.70;1.00;;;;;;5073204;28;20036;-76
2023/06/17 08:13:44;;;;;;;13.20;10.05;;;23.80;71.30;;;;;;5093502;28;20042;-79
2023/06/17 08:16:12;;;;;;;11.93;8.20;;;23.60;69.90;;;;;;5103317;28;20035;-82
2023/06/17 08:18:42;;;;;;;13.57;9.45;;;23.90;64.70;;;;;;5114267;28;20032;-80
2023/06/17 08:21:09;;;;;;;9.93;7.53;;;23.80;50.20;;;;;;5111541;28;20104;-80
2023/06/17 08:23:53;;;;;;;14.65;11.25;;;23.70;29.70;;;;;;5107399;28;20060;-77
2023/06/17 08:26:20;;;;;;;10.55;7.50;;;23.70;36.30;;;;;;5073737;28;20212;-79
2023/06/17 08:28:49;;;;;;;11.93;7.70;;;23.70;27.80;;;;;;5093249;28;20039;-80
2023/06/17 08:34:04;;;;;;;9.02;7.22;;;24.10;6.70;;;;;;5093339;28;20040;-81
2023/06/17 08:36:32;;;;;;;9.07;7.05;;;24.80;1.70;;;;;;5092325;28;20074;-75
2023/06/17 08:39:02;;;;;;;9.43;5.88;;;24.70;1.00;;;;;;5088699;28;20048;-77
2023/06/17 08:41:30;;;;;;;11.50;7.55;;;24.60;1.00;;;;;;5088759;28;20044;-78
2023/06/17 08:44:01;;;;;;;15.95;12.30;;;24.70;1.00;;;;;;5088920;28;20073;-81
2023/06/17 08:46:29;;;;;;;17.40;10.73;;;25.00;1.00;;;;;;5090101;28;20128;-78
2023/06/17 08:48:58;;;;;;;8.88;7.95;;;25.10;1.00;;;;;;5091347;28;20042;-78
2023/06/17 08:51:26;;;;;;;13.40;11.73;;;25.00;1.00;;;;;;5093464;28;20036;-81
2023/06/17 08:53:54;;;;;;;15.55;9.98;;;25.10;1.00;;;;;;5092618;28;20093;-79
2023/06/17 08:56:23;;;;;;;11.88;8.13;;;25.20;1.00;;;;;;5091142;28;20059;-79
2023/06/17 08:58:53;;;;;;;7.68;6.68;;;25.60;1.00;;;;;;5089972;28;20036;-77
2023/06/17 09:01:21;;;;;;;7.57;6.13;;;25.40;1.00;;;;;;5089996;28;20127;-75
2023/06/17 09:03:51;;;;;;;10.30;6.50;;;25.20;1.00;;;;;;5072472;28;20499;-78
2023/06/17 09:06:21;;;;;;;10.85;6.68;;;24.90;1.00;;;;;;5088613;28;20040;-75
2023/06/17 09:08:49;;;;;;;8.90;6.53;;;24.60;1.00;;;;;;5089028;28;20044;-77
2023/06/17 09:11:16;;;;;;;12.82;9.25;;;24.30;1.00;;;;;;5089743;28;20093;-80
2023/06/17 09:13:50;;;;;;;10.88;7.80;;;24.00;1.00;;;;;;5090322;28;20036;-77
2023/06/17 09:16:18;;;;;;;12.52;7.93;;;24.00;1.00;;;;;;5089649;28;20056;-79
2023/06/17 09:18:46;;;;;;;14.27;9.48;;;23.90;1.00;;;;;;5088371;28;20040;-79
2023/06/17 09:21:17;;;;;;;13.75;10.32;;;24.30;1.00;;;;;;5090820;28;20052;-80
2023/06/17 09:23:54;;;;;;;17.48;8.45;;;24.30;1.00;;;;;;5089633;28;20040;-78
2023/06/17 09:26:25;;;;;;;11.77;8.48;;;24.50;1.00;;;;;;5090186;28;20047;-81
2023/06/17 09:28:54;;;;;;;17.45;12.60;;;24.80;1.00;;;;;;5095405;28;20040;-77
2023/06/17 09:31:24;;;;;;;11.48;7.30;;;24.90;1.00;;;;;;5097416;28;20510;-78
2023/06/17 09:33:51;;;;;;;11.48;7.60;;;25.00;1.00;;;;;;5099256;28;20506;-77
2023/06/17 09:36:20;;;;;;;15.57;11.15;;;25.00;1.00;;;;;;5097154;28;20054;-77
2023/06/17 09:38:48;;;;;;;19.63;13.35;;;25.00;1.00;;;;;;5096932;28;20090;-77
2023/06/17 09:41:18;;;;;;;12.13;9.68;;;24.90;1.00;;;;;;5097425;28;20040;-77
2023/06/17 09:43:51;;;;;;;11.48;7.65;;;24.90;1.00;;;;;;5095770;28;20047;-75
2023/06/17 09:46:29;;;;;;;15.80;11.60;;;25.10;1.00;;;;;;5094868;28;20079;-78
2023/06/17 09:48:58;;;;;;;13.85;9.05;;;25.10;1.00;;;;;;5094806;28;20500;-76
2023/06/17 09:51:26;;;;;;;16.85;10.05;;;25.20;1.00;;;;;;5096132;28;20036;-76
2023/06/17 09:53:54;;;;;;;14.57;8.85;;;25.20;1.00;;;;;;5095523;28;20496;-77
2023/06/17 09:56:22;;;;;;;13.82;9.57;;;25.20;1.00;;;;;;5096553;28;20090;-78
2023/06/17 09:58:50;;;;;;;12.10;6.65;;;25.30;1.00;;;;;;5094919;28;20043;-80
2023/06/17 10:01:18;;;;;;;10.15;6.95;;;25.20;1.00;;;;;;5097782;28;20468;-77
2023/06/17 10:03:47;;;;;;;8.63;6.57;;;25.30;1.00;;;;;;5096642;28;20047;-78
2023/06/17 10:06:19;;;;;;;9.98;6.63;;;25.50;1.00;;;;;;5096399;28;20039;-76
2023/06/17 10:08:50;;;;;;;9.02;6.90;;;25.10;1.00;;;;;;5094761;28;20032;-75
2023/06/17 10:11:20;;;;;;;8.57;6.30;;;25.20;1.00;;;;;;5096674;28;20070;-79
2023/06/17 10:13:55;;;;;;;9.68;6.43;;;25.30;1.00;;;;;;5094713;28;20059;-78
2023/06/17 10:16:25;;;;;;;13.88;7.95;;;25.40;1.00;;;;;;5079959;28;20487;-77
2023/06/17 10:19:00;;;;;;;11.90;8.45;;;25.70;1.00;;;;;;5109238;28;20047;-77
2023/06/17 10:21:29;;;;;;;10.88;7.45;;;26.00;1.00;;;;;;5098680;28;20043;-77
2023/06/17 10:23:59;;;;;;;7.93;6.35;;;26.10;1.00;;;;;;5094971;28;20032;-75
2023/06/17 10:26:30;;;;;;;11.18;6.28;;;26.00;1.00;;;;;;5095923;28;20047;-76
2023/06/17 10:29:10;;;;;;;9.10;5.82;;;25.80;1.00;;;;;;5097728;28;20095;-77
2023/06/17 10:31:39;;;;;;;9.27;5.88;;;25.70;1.00;;;;;;5098766;28;20032;-79
2023/06/17 10:34:11;;;;;;;9.88;7.13;;;25.80;1.00;;;;;;5080504;28;20399;-78
2023/06/17 10:36:40;;;;;;;10.73;7.50;;;26.10;1.00;;;;;;5099845;28;20425;-76
2023/06/17 10:39:10;;;;;;;8.93;6.97;;;26.50;1.00;;;;;;5073148;28;20055;-76
2023/06/17 10:41:55;;;;;;;11.38;7.60;;;26.50;1.00;;;;;;5092109;28;20464;-77
2023/06/17 10:44:27;;;;;;;10.97;8.83;;;26.60;1.00;;;;;;5094558;28;20490;-77
2023/06/17 10:46:55;;;;;;;10.20;8.40;;;26.50;1.00;;;;;;5090346;28;20385;-76
2023/06/17 10:49:24;;;;;;;11.65;7.82;;;26.50;1.00;;;;;;5072404;28;20036;-77
2023/06/17 10:51:52;;;;;;;15.95;11.52;;;26.50;1.00;;;;;;5069978;28;20052;-77
2023/06/17 10:54:28;;;;;;;10.50;7.93;;;26.60;1.00;;;;;;5090626;28;20044;-77
2023/06/17 10:56:55;;;;;;;14.45;9.45;;;26.50;1.00;;;;;;5090622;28;20044;-78
2023/06/17 10:59:26;;;;;;;16.27;8.32;;;26.40;1.00;;;;;;5088900;28;20044;-77
2023/06/17 11:01:59;;;;;;;11.80;8.65;;;26.50;1.00;;;;;;5091651;28;20089;-76
2023/06/17 11:04:30;;;;;;;9.15;6.97;;;26.50;1.00;;;;;;5090347;28;20075;-79
2023/06/17 11:06:58;;;;;;;7.80;6.60;;;26.70;1.00;;;;;;5090139;28;20055;-76
2023/06/17 11:09:26;;;;;;;10.23;7.32;;;26.80;1.00;;;;;;5089635;28;20047;-76
2023/06/17 11:11:54;;;;;;;9.00;6.57;;;27.00;1.00;;;;;;5090631;28;20503;-76
2023/06/17 11:14:22;;;;;;;7.78;6.10;;;27.20;1.00;;;;;;5090133;28;20067;-75
2023/06/17 11:16:50;;;;;;;9.43;6.13;;;27.20;1.00;;;;;;5090650;28;20044;-76
2023/06/17 11:19:18;;;;;;;7.10;5.55;;;27.00;1.00;;;;;;5090581;28;20054;-78
2023/06/17 11:21:46;;;;;;;9.45;5.30;;;27.20;1.00;;;;;;5089280;28;20036;-76
2023/06/17 11:24:14;;;;;;;8.80;5.75;;;27.40;1.00;;;;;;5089290;28;20126;-77
2023/06/17 11:26:41;;;;;;;8.30;5.80;;;27.30;1.00;;;;;;5095014;28;20024;-80
2023/06/17 11:29:10;;;;;;;9.45;6.10;;;27.20;1.00;;;;;;5115547;28;20091;-75
2023/06/17 11:31:38;;;;;;;10.00;5.10;;;26.90;1.00;;;;;;5105864;28;20455;-73
2023/06/17 11:34:08;;;;;;;6.75;5.25;;;27.10;1.00;;;;;;5091997;28;20040;-81
2023/06/17 11:36:36;;;;;;;8.63;5.18;;;26.80;1.00;;;;;;5090823;28;20067;-78
2023/06/17 11:39:05;;;;;;;13.23;6.32;;;26.50;1.00;;;;;;5091887;28;20438;-74
2023/06/17 11:41:33;;;;;;;9.52;5.90;;;26.50;1.00;;;;;;5090028;28;20067;-75
2023/06/17 11:44:01;;;;;;;8.88;5.78;;;26.60;1.00;;;;;;5090298;28;20074;-75
2023/06/17 11:46:28;;;;;;;11.05;6.47;;;27.00;1.00;;;;;;5089096;28;20048;-76
2023/06/17 11:48:57;;;;;;;8.35;5.80;;;26.90;1.00;;;;;;5089614;28;20043;-75
2023/06/17 11:51:24;;;;;;;8.98;6.85;;;26.90;1.00;;;;;;5088316;28;20032;-73
2023/06/17 11:53:52;;;;;;;11.60;9.50;;;26.70;1.00;;;;;;5090427;28;20043;-75
2023/06/17 11:56:21;;;;;;;10.77;7.20;;;26.50;1.00;;;;;;5088592;28;20040;-80
2023/06/17 11:58:53;;;;;;;13.52;8.52;;;26.30;1.00;;;;;;5088446;28;20050;-77
2023/06/17 12:01:26;;;;;;;14.38;11.48;;;26.10;1.00;;;;;;5090310;28;20535;-76
2023/06/17 12:03:57;;;;;;;15.85;11.27;;;26.50;1.00;;;;;;5090314;28;20048;-77
2023/06/17 12:06:27;;;;;;;9.90;7.90;;;26.60;1.00;;;;;;5072229;28;20051;-77
2023/06/17 12:08:58;;;;;;;7.93;6.05;;;26.00;1.00;;;;;;5089816;28;20119;-77
2023/06/17 12:11:29;;;;;;;8.45;5.50;;;26.30;1.00;;;;;;5090136;28;20044;-76
2023/06/17 12:13:57;;;;;;;8.65;7.07;;;26.40;1.00;;;;;;5090651;28;20115;-77
2023/06/17 12:16:25;;;;;;;11.65;6.80;;;26.40;1.00;;;;;;5073970;28;20052;-76
2023/06/17 12:18:53;;;;;;;9.85;6.68;;;26.60;1.00;;;;;;5090492;28;20499;-75
2023/06/17 12:21:21;;;;;;;8.10;5.82;;;26.80;1.00;;;;;;5090061;28;20047;-76
2023/06/17 12:23:49;;;;;;;9.25;7.57;;;26.60;1.00;;;;;;5090020;28;20318;-75
2023/06/17 12:26:16;;;;;;;7.88;5.53;;;26.70;1.00;;;;;;5090563;28;20118;-77
2023/06/17 12:28:45;;;;;;;12.25;7.20;;;26.70;1.00;;;;;;5090297;28;20125;-77
2023/06/17 12:31:13;;;;;;;9.88;7.45;;;26.80;1.00;;;;;;5090436;28;20074;-76
2023/06/17 12:33:41;;;;;;;8.25;5.80;;;26.90;1.00;;;;;;5087236;28;20090;-76
2023/06/17 12:36:08;;;;;;;9.55;7.18;;;26.70;1.00;;;;;;5070211;28;20045;-76
2023/06/17 12:38:37;;;;;;;8.35;5.50;;;26.50;1.00;;;;;;5069583;28;20044;-76
2023/06/17 12:41:05;;;;;;;8.07;5.25;;;26.30;1.00;;;;;;5071216;28;20769;-77
2023/06/17 12:43:33;;;;;;;7.38;5.75;;;25.80;1.00;;;;;;5070232;28;20472;-76
2023/06/17 12:46:02;;;;;;;7.95;5.18;;;25.80;1.00;;;;;;5073494;28;20293;-76
2023/06/17 12:48:31;;;;;;;6.60;4.88;;;25.90;1.00;;;;;;5089523;28;20646;-77